Naples Airport (Florida)

Airport
ICAO code: 
KAPF
IATA Code: 
APF
Summary
ICAO Region: 
NAM
Territory: 
Location: 
Naples, Florida
Serving: 
Naples
Elevation: 
8 ft
Coordinates: 
Aerial View: 
26° 9' 9" N, 81° 46' 32.016" W
Metar
Observation
KAPF 040653Z AUTO 00000KT 10SM CLR 16/14 A3010 RMK AO2 SLP193 T01610144
Station
Naples, Naples Municipal Airport
Date/Time
2021-12-04 06:53:00
Wind direction
Wind speed
00 kts
Lowest cloud amount
n/a
Temperature
16.1°C
Dew point
14.4°C
Humidity
89%
Weather condition
n/a

Naples Airport, formerly known as Naples Municipal Airport, is a public use airport located 4km northeast of the central business district of Naples, Florida, USA.

Climatology

Tropical Savanna climate (Köppen climate classification Aw)

Runways

Designator Length Width Surface Rops
NE/SW 564 30 TURF No/No
14/32 1524 30 ASP Yes/Yes
5/23 1612 46 ASP Yes/Yes
Airport map: 
Aerial View: 

SKYbrary Partners:

Safety knowledge contributed by: